Terminal Aerodrome Forecast
Issued by NWS

Home | Current Version | Previous Version | Text Only | Print | Product List | Glossary On
Versions: 1 2 3 4 5 6 7 8 9 10 11 12
000
FTUS44 KOUN 160520
TAFWWR
TAF
KWWR 160520Z 1606/1706 20013KT P6SM SKC
     FM161600 19020G30KT P6SM SCT250
     FM170100 17014KT P6SM SCT100 BKN250=

USA.gov is the U.S. government's official web portal to all federal, state and local government web resources and services.